Slater, South Carolina
Current Conditions -  °F | °C
As of 2:53 AM on Monday 22 Dec 2014 (Local Time) from KGMU Reporting Station
Overcast Overcast  
Wind Chill: 37°   Ceiling: 2600
Heat Index: 43°   Visibility: 7mi
Dew Point: 39°   Wind: 10mph
Humidity: 86%   Direction: 40°NE
Pressure: 30.11"   Gusts: NA
Location:  35.03°N, 82.5°W
Report Text: KGMU 220753Z AUTO 04009KT 7SM OVC026 06/04 A3011 RMK AO2 RAE27 SLP198 P0000 T00610039
Loading
Personal Weather Stations






























Interactive Weather Map New forecast layout! Learn more

10-Day Weather Forecast

Advertisements
Track Severe Weather on mobile